Time;durP1;ratioP1;P1;durP2;ratioP2;P2;SDS_P1;SDS_P2;PMS_P1;PMS_P2;Temp;Humidity;BMP_temperature;BMP_pressure;BME280_temperature;BME280_humidity;BME280_pressure;Samples;Min_cycle;Max_cycle;Signal;HPM_P1;HPM_P2
2023/09/20 00:01:54;;;;;;;4.00;3.70;;;;;;;17.49;100.00;98272.48;109235;1254;60392;-87
2023/09/20 00:04:21;;;;;;;5.90;4.40;;;;;;;17.50;100.00;98271.00;109515;1252;61099;-86
2023/09/20 00:06:48;;;;;;;4.20;3.90;;;;;;;17.51;100.00;98274.71;108770;1253;73892;-86
2023/09/20 00:09:17;;;;;;;3.70;3.40;;;;;;;17.53;100.00;98275.23;108623;1254;72961;-86
2023/09/20 00:11:46;;;;;;;4.40;4.10;;;;;;;17.53;100.00;98274.98;109531;1254;71368;-87
2023/09/20 00:14:22;;;;;;;6.10;4.10;;;;;;;17.55;100.00;98276.31;109257;1253;61151;-88
2023/09/20 00:16:52;;;;;;;4.60;4.10;;;;;;;17.55;100.00;98280.23;105767;1260;61171;-87
2023/09/20 00:19:19;;;;;;;6.70;4.10;;;;;;;17.56;100.00;98283.45;105880;1254;74732;-86
2023/09/20 00:21:47;;;;;;;4.70;4.20;;;;;;;17.55;100.00;98279.86;105911;1256;73672;-86
2023/09/20 00:24:14;;;;;;;3.90;3.50;;;;;;;17.56;100.00;98283.94;105839;1259;71391;-87
2023/09/20 00:26:41;;;;;;;4.00;3.60;;;;;;;17.56;100.00;98285.19;105796;1257;61923;-87
2023/09/20 00:29:12;;;;;;;4.30;3.80;;;;;;;17.56;100.00;98285.52;105755;1257;61325;-87
2023/09/20 00:31:39;;;;;;;4.50;3.70;;;;;;;17.56;100.00;98286.85;105556;1254;74906;-85
2023/09/20 00:34:06;;;;;;;5.00;4.00;;;;;;;17.56;100.00;98289.39;105764;1254;73321;-86
2023/09/20 00:36:33;;;;;;;4.00;3.60;;;;;;;17.56;100.00;98292.48;105915;1257;71434;-86
2023/09/20 00:39:01;;;;;;;4.60;4.20;;;;;;;17.55;100.00;98294.70;106486;1255;63492;-86
2023/09/20 00:41:28;;;;;;;5.50;3.50;;;;;;;17.56;100.00;98297.69;107533;1254;61154;-86
2023/09/20 00:43:58;;;;;;;4.40;3.90;;;;;;;17.56;100.00;98297.89;105828;1259;74757;-90
2023/09/20 00:46:25;;;;;;;3.60;3.30;;;;;;;17.57;100.00;98299.42;105834;1253;73579;-85
2023/09/20 00:48:54;;;;;;;4.20;3.80;;;;;;;17.57;100.00;98300.74;105693;1267;73933;-85
2023/09/20 00:51:22;;;;;;;5.00;3.60;;;;;;;17.56;100.00;98301.65;105714;1255;61802;-87
2023/09/20 00:53:54;;;;;;;4.40;3.90;;;;;;;17.56;100.00;98301.66;105857;1254;61378;-87
2023/09/20 00:56:22;;;;;;;5.30;3.40;;;;;;;17.56;100.00;98302.96;105945;1254;75744;-90
2023/09/20 00:58:53;;;;;;;3.70;3.40;;;;;;;17.56;100.00;98300.83;105704;1254;74473;-87
2023/09/20 01:01:20;;;;;;;4.70;3.50;;;;;;;17.56;100.00;98301.85;107005;1253;71071;-86
2023/09/20 01:03:50;;;;;;;6.20;3.50;;;;;;;17.57;100.00;98304.89;109191;1254;61204;-86
2023/09/20 01:06:19;;;;;;;3.20;2.90;;;;;;;17.57;100.00;98301.98;109406;1254;60297;-87
2023/09/20 01:08:47;;;;;;;3.80;3.50;;;;;;;17.58;100.00;98306.02;109297;1254;73441;-86
2023/09/20 01:11:15;;;;;;;4.30;3.40;;;;;;;17.60;100.00;98308.76;109054;1260;74959;-86
2023/09/20 01:13:43;;;;;;;5.50;3.80;;;;;;;17.61;100.00;98308.08;106052;1253;73681;-86
2023/09/20 01:16:14;;;;;;;4.00;3.50;;;;;;;17.63;100.00;98313.83;105649;1255;62078;-86
2023/09/20 01:18:44;;;;;;;5.90;4.20;;;;;;;17.66;100.00;98312.12;106023;1254;61064;-88
2023/09/20 01:21:12;;;;;;;6.20;5.30;;;;;;;17.68;100.00;98310.81;106074;1254;73279;-86
2023/09/20 01:23:42;;;;;;;4.30;4.00;;;;;;;17.71;100.00;98308.58;106166;1258;74792;-87
2023/09/20 01:26:13;;;;;;;6.00;4.90;;;;;;;17.73;100.00;98311.27;105943;1260;73340;-88
2023/09/20 01:28:41;;;;;;;4.60;4.00;;;;;;;17.74;100.00;98313.48;105723;1254;61055;-87
2023/09/20 01:31:10;;;;;;;4.50;4.10;;;;;;;17.74;100.00;98314.54;105558;1254;61157;-86
2023/09/20 01:33:38;;;;;;;4.80;4.30;;;;;;;17.74;100.00;98319.11;106077;1254;73639;-85
2023/09/20 01:36:06;;;;;;;4.30;3.90;;;;;;;17.73;100.00;98324.23;106275;1254;73345;-87
2023/09/20 01:38:34;;;;;;;4.00;3.30;;;;;;;17.73;100.00;98325.52;105894;1255;71649;-88
2023/09/20 01:41:03;;;;;;;4.80;3.80;;;;;;;17.72;100.00;98322.94;106447;1255;62194;-86
2023/09/20 01:43:31;;;;;;;6.70;3.30;;;;;;;17.71;100.00;98325.76;109547;1253;59157;-87
2023/09/20 01:45:58;;;;;;;3.70;3.30;;;;;;;17.71;100.00;98331.14;108116;1254;72540;-86
2023/09/20 01:48:28;;;;;;;4.40;3.70;;;;;;;17.70;100.00;98328.53;105929;1254;73284;-87
2023/09/20 01:50:56;;;;;;;6.10;3.00;;;;;;;17.70;100.00;98328.16;105916;1254;71765;-90
2023/09/20 01:53:25;;;;;;;3.50;2.90;;;;;;;17.70;100.00;98334.30;105715;1253;61301;-87
2023/09/20 01:55:52;;;;;;;3.00;2.80;;;;;;;17.71;100.00;98330.47;105755;1257;61399;-87
2023/09/20 01:58:20;;;;;;;3.50;3.20;;;;;;;17.72;100.00;98332.56;105807;1255;73147;-87
2023/09/20 02:00:50;;;;;;;4.50;3.90;;;;;;;17.72;100.00;98334.71;105762;1257;74412;-87
2023/09/20 02:03:18;;;;;;;4.30;3.90;;;;;;;17.73;100.00;98333.70;105955;1257;71122;-85
2023/09/20 02:05:47;;;;;;;4.80;4.20;;;;;;;17.73;100.00;98332.31;105507;1254;61199;-87
2023/09/20 02:08:17;;;;;;;4.00;3.70;;;;;;;17.72;100.00;98335.45;105800;1257;61084;-87
2023/09/20 02:10:46;;;;;;;3.70;3.40;;;;;;;17.70;100.00;98335.77;105807;1256;72647;-86
2023/09/20 02:13:15;;;;;;;3.20;2.90;;;;;;;17.69;100.00;98340.40;105784;1254;74319;-86
2023/09/20 02:15:43;;;;;;;3.20;2.80;;;;;;;17.68;100.00;98339.77;105801;1254;70655;-85
2023/09/20 02:18:11;;;;;;;3.50;3.20;;;;;;;17.67;100.00;98342.03;105847;1254;61055;-85
2023/09/20 02:20:38;;;;;;;3.40;3.10;;;;;;;17.67;100.00;98341.56;105880;1254;61071;-85
2023/09/20 02:23:12;;;;;;;5.10;4.00;;;;;;;17.66;100.00;98347.63;105548;1260;73758;-85
2023/09/20 02:25:40;;;;;;;4.80;4.00;;;;;;;17.64;100.00;98348.90;105918;1254;89627;-85
2023/09/20 02:28:08;;;;;;;4.20;3.90;;;;;;;17.62;100.00;98349.81;106852;1254;71367;-85
2023/09/20 02:30:36;;;;;;;3.80;3.50;;;;;;;17.61;100.00;98350.42;106291;1255;60994;-87
2023/09/20 02:33:05;;;;;;;5.40;5.00;;;;;;;17.61;100.00;98354.60;106031;1258;61093;-87
2023/09/20 02:35:33;;;;;;;5.40;5.00;;;;;;;17.60;100.00;98354.52;105853;1255;72645;-87
2023/09/20 02:38:04;;;;;;;5.30;4.80;;;;;;;17.59;100.00;98360.17;105731;1260;73264;-86
2023/09/20 02:40:35;;;;;;;5.00;4.40;;;;;;;17.59;100.00;98360.23;105767;1257;73464;-86
2023/09/20 02:43:04;;;;;;;4.70;4.10;;;;;;;17.58;100.00;98362.36;105950;1257;61183;-86
2023/09/20 02:45:34;;;;;;;4.40;4.00;;;;;;;17.57;100.00;98363.17;105786;1254;61099;-86
2023/09/20 02:48:06;;;;;;;4.00;3.60;;;;;;;17.55;100.00;98361.33;105783;1254;72918;-85
2023/09/20 02:50:34;;;;;;;;;;;;;;;17.55;100.00;98360.48;105805;1260;74172;-87
2023/09/20 02:53:03;;;;;;;3.70;3.40;;;;;;;17.53;100.00;98361.18;105960;1254;71596;-88
2023/09/20 02:55:31;;;;;;;6.30;4.30;;;;;;;17.51;100.00;98362.80;105540;1261;61800;-87
2023/09/20 02:57:58;;;;;;;4.30;3.90;;;;;;;17.50;100.00;98362.05;108462;1259;61065;-85
2023/09/20 03:00:30;;;;;;;3.50;3.20;;;;;;;17.49;100.00;98361.21;108624;1254;72350;-84
2023/09/20 03:03:04;;;;;;;3.60;3.10;;;;;;;17.49;100.00;98360.70;107515;1254;75341;-84
2023/09/20 03:05:34;;;;;;;3.80;3.40;;;;;;;17.49;100.00;98361.96;107946;1254;71183;-85
2023/09/20 03:08:04;;;;;;;4.50;3.90;;;;;;;17.48;100.00;98361.30;108159;1254;62937;-85
2023/09/20 03:10:33;;;;;;;5.30;3.50;;;;;;;17.49;100.00;98363.61;108359;1253;60196;-86
2023/09/20 03:13:03;;;;;;;4.40;3.60;;;;;;;17.49;100.00;98361.59;108919;1253;74031;-87
2023/09/20 03:15:32;;;;;;;5.00;4.00;;;;;;;17.50;100.00;98364.16;108645;1255;73235;-87
2023/09/20 03:18:03;;;;;;;5.20;4.70;;;;;;;17.51;100.00;98362.98;108667;1254;71105;-86
2023/09/20 03:20:35;;;;;;;5.20;4.40;;;;;;;17.52;100.00;98363.59;109202;1254;60642;-86
2023/09/20 03:23:04;;;;;;;4.90;4.10;;;;;;;17.53;100.00;98360.09;109490;1254;60501;-86
2023/09/20 03:25:37;;;;;;;5.20;4.30;;;;;;;17.54;100.00;98361.98;109521;1254;72773;-87
2023/09/20 03:28:11;;;;;;;8.50;4.50;;;;;;;17.55;100.00;98364.09;109356;1253;73084;-86
2023/09/20 03:30:39;;;;;;;3.50;3.20;;;;;;;17.56;100.00;98369.03;109543;1253;71450;-85
2023/09/20 03:33:11;;;;;;;4.70;3.10;;;;;;;17.57;100.00;98366.29;109508;1253;60682;-85
2023/09/20 03:35:38;;;;;;;4.10;3.40;;;;;;;17.56;100.00;98364.01;109557;1253;59334;-86
2023/09/20 03:38:05;;;;;;;4.20;3.80;;;;;;;17.55;100.00;98364.61;109265;1253;72558;-86
2023/09/20 03:40:33;;;;;;;3.10;2.90;;;;;;;17.55;100.00;98362.61;107026;1255;73134;-87
2023/09/20 03:43:03;;;;;;;3.00;2.70;;;;;;;17.54;100.00;98365.07;106250;1254;70927;-89
2023/09/20 03:45:31;;;;;;;3.50;3.00;;;;;;;17.53;100.00;98363.35;105783;1255;61808;-87
2023/09/20 03:48:01;;;;;;;3.80;2.90;;;;;;;17.53;100.00;98364.62;105963;1257;60982;-87
2023/09/20 03:50:29;;;;;;;2.50;2.30;;;;;;;17.52;100.00;98366.00;105999;1254;73983;-86
2023/09/20 03:52:57;;;;;;;3.10;2.70;;;;;;;17.52;100.00;98365.45;106015;1253;72929;-87
2023/09/20 03:55:24;;;;;;;3.20;2.80;;;;;;;17.52;100.00;98364.01;105954;1259;72558;-86
2023/09/20 03:57:52;;;;;;;4.50;4.20;;;;;;;17.51;100.00;98363.02;106211;1254;62276;-86
2023/09/20 04:00:25;;;;;;;3.90;3.60;;;;;;;17.51;100.00;98364.48;107139;1253;61001;-86
2023/09/20 04:02:54;;;;;;;3.90;3.10;;;;;;;17.50;100.00;98365.60;108568;1253;72445;-86
2023/09/20 04:05:24;;;;;;;3.90;3.30;;;;;;;17.50;100.00;98368.14;108577;1254;72880;-87
2023/09/20 04:08:11;;;;;;;3.20;3.00;;;;;;;17.51;100.00;98367.00;106629;1256;71372;-86
2023/09/20 04:10:40;;;;;;;3.00;2.70;;;;;;;17.51;100.00;98363.60;105880;1260;62095;-87
2023/09/20 04:13:08;;;;;;;3.60;3.30;;;;;;;17.50;100.00;98363.42;106174;1257;61176;-87
2023/09/20 04:15:40;;;;;;;4.90;3.50;;;;;;;17.50;100.00;98365.63;106608;1254;73526;-85
2023/09/20 04:18:09;;;;;;;5.50;3.50;;;;;;;17.49;100.00;98365.89;108882;1253;73217;-86
2023/09/20 04:20:37;;;;;;;4.30;3.90;;;;;;;17.49;100.00;98366.44;108779;1252;71414;-85
2023/09/20 04:23:07;;;;;;;4.50;3.30;;;;;;;17.50;100.00;98370.17;106842;1253;61688;-86
2023/09/20 04:25:34;;;;;;;3.80;3.40;;;;;;;17.51;100.00;98374.38;106118;1254;61152;-87
2023/09/20 04:28:01;;;;;;;3.90;3.60;;;;;;;17.53;100.00;98373.65;107170;1252;73680;-84
2023/09/20 04:30:30;;;;;;;5.20;4.40;;;;;;;17.55;100.00;98375.06;106951;1254;73143;-86
2023/09/20 04:32:59;;;;;;;5.80;4.20;;;;;;;17.58;100.00;98377.95;106251;1254;72996;-86
2023/09/20 04:35:34;;;;;;;6.70;6.20;;;;;;;17.59;100.00;98380.65;106161;1257;61358;-85
2023/09/20 04:38:04;;;;;;;8.30;7.70;;;;;;;17.61;100.00;98378.84;105924;1259;61096;-86
2023/09/20 04:40:32;;;;;;;11.60;10.50;;;;;;;17.64;100.00;98379.52;105826;1254;72525;-87
2023/09/20 04:42:59;;;;;;;16.20;14.90;;;;;;;17.66;100.00;98383.65;106053;1254;74894;-87
2023/09/20 04:45:28;;;;;;;15.40;14.10;;;;;;;17.68;100.00;98386.15;106246;1254;71939;-87
2023/09/20 04:47:57;;;;;;;13.30;12.30;;;;;;;17.70;100.00;98382.70;106102;1253;62632;-87
2023/09/20 04:50:25;;;;;;;15.00;12.20;;;;;;;17.72;100.00;98385.58;106333;1256;61266;-86
2023/09/20 04:52:54;;;;;;;11.20;10.40;;;;;;;17.75;100.00;98390.94;105832;1254;73831;-88
2023/09/20 04:55:21;;;;;;;15.50;14.40;;;;;;;17.76;100.00;98388.67;107034;1259;73002;-87
2023/09/20 04:57:49;;;;;;;10.70;9.80;;;;;;;17.77;100.00;98389.85;105826;1254;72592;-86
2023/09/20 05:00:20;;;;;;;10.40;8.70;;;;;;;17.78;100.00;98391.38;105778;1260;62996;-87
2023/09/20 05:02:48;;;;;;;9.60;8.60;;;;;;;17.78;100.00;98392.40;105554;1253;61102;-86
2023/09/20 05:05:16;;;;;;;9.40;8.50;;;;;;;17.79;100.00;98392.83;105845;1254;73945;-86
2023/09/20 05:07:44;;;;;;;9.80;9.00;;;;;;;17.80;100.00;98395.16;106075;1254;73582;-86
2023/09/20 05:10:12;;;;;;;11.60;10.80;;;;;;;17.80;100.00;98394.61;105873;1254;73046;-88
2023/09/20 05:12:39;;;;;;;10.20;9.40;;;;;;;17.81;100.00;98398.28;105644;1257;61086;-87
2023/09/20 05:15:07;;;;;;;6.20;5.30;;;;;;;17.81;100.00;98397.16;107744;1253;60972;-87
2023/09/20 05:17:35;;;;;;;8.50;6.80;;;;;;;17.81;100.00;98398.08;109148;1253;72561;-87
2023/09/20 05:20:02;;;;;;;5.70;5.20;;;;;;;17.82;100.00;98401.61;106955;1256;73006;-91
2023/09/20 05:22:31;;;;;;;4.40;3.90;;;;;;;17.82;100.00;98400.84;108613;1253;72065;-86
2023/09/20 05:25:00;;;;;;;4.10;3.80;;;;;;;17.83;100.00;98406.04;109219;1253;60506;-87
2023/09/20 05:27:28;;;;;;;4.20;3.80;;;;;;;17.84;100.00;98408.12;109220;1252;60358;-88
2023/09/20 05:29:56;;;;;;;4.20;3.00;;;;;;;17.85;100.00;98410.38;109475;1253;73204;-87
2023/09/20 05:32:23;;;;;;;6.00;3.20;;;;;;;17.86;100.00;98409.34;109441;1254;73178;-87
2023/09/20 05:34:53;;;;;;;3.00;2.50;;;;;;;17.88;100.00;98408.48;109420;1253;71266;-86
2023/09/20 05:37:23;;;;;;;5.40;3.30;;;;;;;17.89;100.00;98411.81;108575;1251;60990;-87
2023/09/20 05:39:50;;;;;;;4.30;2.70;;;;;;;17.91;100.00;98410.40;107175;1252;61190;-86
2023/09/20 05:42:18;;;;;;;3.40;2.70;;;;;;;17.92;100.00;98408.11;105894;1255;76392;-87
2023/09/20 05:44:45;;;;;;;3.30;3.00;;;;;;;17.93;100.00;98410.88;105783;1261;73679;-86
2023/09/20 05:47:12;;;;;;;3.80;2.80;;;;;;;17.95;100.00;98412.80;105994;1257;72162;-87
2023/09/20 05:49:40;;;;;;;3.40;2.80;;;;;;;17.98;100.00;98415.45;105951;1257;63461;-87
2023/09/20 05:52:07;;;;;;;3.60;2.70;;;;;;;18.00;100.00;98414.48;106148;1254;61103;-92
2023/09/20 05:54:42;;;;;;;2.70;2.50;;;;;;;18.02;100.00;98417.15;106020;1263;72535;-88
2023/09/20 05:57:13;;;;;;;3.30;2.70;;;;;;;18.05;100.00;98417.66;106155;1254;74394;-91
2023/09/20 05:59:41;;;;;;;2.90;2.60;;;;;;;18.07;100.00;98421.21;106036;1254;73555;-89
2023/09/20 06:02:08;;;;;;;3.10;2.90;;;;;;;18.10;100.00;98422.40;105930;1254;61187;-89
2023/09/20 06:04:39;;;;;;;3.10;2.50;;;;;;;18.13;100.00;98421.39;106294;1259;61109;-90
2023/09/20 06:07:23;;;;;;;5.00;3.50;;;;;;;18.16;100.00;98421.08;106267;1257;74125;-90
2023/09/20 06:10:05;;;;;;;5.80;5.30;;;;;;;18.21;100.00;98419.48;108708;1254;75429;-94
2023/09/20 06:12:38;;;;;;;5.80;4.90;;;;;;;18.25;100.00;98421.83;109221;1251;71349;-92
2023/09/20 06:16:06;;;;;;;;;;;;;;;;;;;;;
2023/09/20 06:35:59;;;;;;;;;;;;;;;;;;;;;
2023/09/20 06:39:07;;;;;;;4.60;4.10;;;;;;;18.70;100.00;98454.20;107254;1278;61214;-92
2023/09/20 06:44:51;;;;;;;4.40;3.10;;;;;;;18.78;100.00;98455.02;107437;1279;73124;-91
2023/09/20 06:47:40;;;;;;;5.00;2.80;;;;;;;18.84;100.00;98456.54;107152;1280;73924;-90
2023/09/20 06:50:09;;;;;;;5.20;2.50;;;;;;;18.87;100.00;98459.42;106992;1279;59060;-92
2023/09/20 06:52:54;;;;;;;3.70;2.20;;;;;;;18.92;100.00;98463.50;107085;1280;59176;-89
2023/09/20 06:55:34;;;;;;;2.20;2.00;;;;;;;18.96;100.00;98469.18;107007;1279;73167;-94
2023/09/20 06:58:04;;;;;;;3.70;1.70;;;;;;;19.00;100.00;98468.80;107421;1279;73425;-90
2023/09/20 07:00:50;;;;;;;2.50;1.60;;;;;;;19.05;100.00;98472.15;107311;1280;73154;-90
2023/09/20 07:03:19;;;;;;;4.50;2.20;;;;;;;19.09;100.00;98472.79;106947;1278;62183;-92
2023/09/20 07:05:57;;;;;;;3.20;2.10;;;;;;;19.13;100.00;98472.67;104700;1280;61226;-91
2023/09/20 07:08:34;;;;;;;2.50;2.00;;;;;;;19.16;99.87;98470.40;103978;1277;76537;-88
2023/09/20 07:11:06;;;;;;;2.60;1.60;;;;;;;19.19;99.16;98470.10;104121;1280;75508;-89
2023/09/20 07:13:42;;;;;;;3.20;2.00;;;;;;;19.24;99.13;98473.08;104060;1280;74124;-88
2023/09/20 07:16:20;;;;;;;3.50;1.90;;;;;;;19.28;98.80;98469.21;104103;1277;61191;-89
2023/09/20 07:18:58;;;;;;;2.70;1.90;;;;;;;19.33;98.78;98471.41;104667;1278;61202;-86
2023/09/20 07:21:28;;;;;;;3.50;2.30;;;;;;;19.38;98.21;98471.95;104055;1285;74301;-81
2023/09/20 07:23:59;;;;;;;2.20;1.60;;;;;;;19.42;97.96;98476.06;104082;1279;75252;-82
2023/09/20 07:26:26;;;;;;;3.80;1.80;;;;;;;19.46;97.63;98478.13;103999;1281;71942;-83
2023/09/20 07:28:54;;;;;;;3.30;2.80;;;;;;;19.52;97.13;98478.30;104124;1280;61970;-83
2023/09/20 07:31:26;;;;;;;3.50;2.30;;;;;;;19.57;96.61;98478.59;104119;1283;61167;-82
2023/09/20 07:33:55;;;;;;;2.70;2.00;;;;;;;19.60;96.13;98473.64;104125;1283;75444;-83
2023/09/20 07:36:23;;;;;;;2.90;1.70;;;;;;;19.64;95.82;98471.92;104191;1278;74413;-84
2023/09/20 07:39:07;;;;;;;3.40;2.40;;;;;;;19.70;95.31;98474.44;104192;1282;72534;-84
2023/09/20 07:41:36;;;;;;;4.20;2.00;;;;;;;19.74;95.20;98477.95;104154;1281;61106;-85
2023/09/20 07:44:11;;;;;;;1.40;1.30;;;;;;;19.79;94.86;98482.73;104121;1280;61202;-89
2023/09/20 07:46:56;;;;;;;2.80;1.80;;;;;;;19.85;93.58;98483.81;103927;1285;74189;-89
2023/09/20 07:49:47;;;;;;;2.00;1.60;;;;;;;19.89;93.02;98485.73;104979;1279;74416;-89
2023/09/20 07:52:28;;;;;;;3.00;1.70;;;;;;;19.94;92.59;98485.54;106505;1279;74782;-89
2023/09/20 07:55:04;;;;;;;3.50;1.70;;;;;;;20.00;92.35;98484.71;106797;1277;62436;-88
2023/09/20 07:58:01;;;;;;;;;;;;;;;;;;;;;
2023/09/20 08:00:58;;;;;;;1.60;1.50;;;;;;;20.15;90.73;98483.14;106915;1279;73123;-90
2023/09/20 08:03:46;;;;;;;4.80;1.70;;;;;;;20.24;89.46;98476.69;107218;1277;76193;-89
